• Join FlightAware (Why Join?)
  • Login
  • US Flag 
12:46AM EDT


 

Airport Tracker/Info


-or-


 

Live Flight TrackerFlight Track Log ✈ TYR793 ✈ 23-Apr-2013 ✈ LOWW / VIE - LBSF / SOF

Flight Track Log - Related Links

Times and Time Zones

All times are in EDT time to prevent confusion due to time zone crossing. See the TYR793 flight status page for this flight to view local times or setup timezone preferences in your user account.

Time Position Orientation Groundspeed Altitude Reporting Facility
EDT Latitude Longitude Course Direction KTS MPH feet Rate Location/Type
11:36AM 47.8992 16.8736 136° Southeast  Level Estimated
11:37AM 47.8287 16.9743 136° Southeast  Level Estimated
11:38AM 47.7580 17.0748 136° Southeast  Level Estimated
11:39AM 47.6873 17.1749 136° Southeast  Level Estimated
11:40AM 47.6165 17.2749 136° Southeast  Level Estimated
11:41AM 47.5456 17.3745 136° Southeast  Level Estimated
11:42AM 47.4747 17.4739 137° Southeast  Level Estimated
11:43AM 47.4036 17.5730 137° Southeast  Level Estimated
11:44AM 47.3325 17.6718 137° Southeast  Level Estimated
11:45AM 47.2612 17.7704 137° Southeast  Level Estimated
11:46AM 47.1899 17.8687 137° Southeast  Level Estimated
11:47AM 47.1185 17.9667 137° Southeast  Level Estimated
11:48AM 47.0470 18.0645 137° Southeast  Level Estimated
11:49AM 46.9755 18.1621 137° Southeast  Level Estimated
11:50AM 46.9038 18.2593 137° Southeast  Level Estimated
11:51AM 46.8321 18.3563 137° Southeast  Level Estimated
11:52AM 46.7603 18.4531 137° Southeast  Level Estimated
11:53AM 46.6884 18.5495 137° Southeast  Level Estimated
11:54AM 46.6164 18.6458 137° Southeast  Level Estimated
11:55AM 46.5444 18.7417 137° Southeast  Level Estimated
11:56AM 46.4723 18.8375 138° Southeast  Level Estimated
11:57AM 46.4000 18.9329 138° Southeast  Level Estimated
11:58AM 46.3278 19.0281 138° Southeast  Level Estimated
11:59AM 46.2554 19.1231 138° Southeast  Level Estimated
12:00PM 46.1829 19.2178 138° Southeast  Level Estimated
12:01PM 46.1104 19.3123 138° Southeast  Level Estimated
12:02PM 46.0378 19.4065 138° Southeast  Level Estimated
12:03PM 45.9651 19.5004 138° Southeast  Level Estimated
12:04PM 45.8924 19.5941 138° Southeast  Level Estimated
12:05PM 45.8195 19.6876 138° Southeast  Level Estimated
12:06PM 45.7466 19.7808 138° Southeast  Level Estimated
12:07PM 45.6736 19.8738 138° Southeast  Level Estimated
12:08PM 45.6006 19.9666 138° Southeast  Level Estimated
12:09PM 45.5274 20.0591 138° Southeast  Level Estimated
12:10PM 45.4542 20.1513 139° Southeast  Level Estimated
12:11PM 45.3809 20.2433 139° Southeast  Level Estimated
12:12PM 45.3076 20.3351 139° Southeast  Level Estimated
12:13PM 45.2341 20.4267 139° Southeast  Level Estimated
12:14PM 45.1606 20.5180 139° Southeast  Level Estimated
12:15PM 45.0871 20.6090 139° Southeast  Level Estimated
12:16PM 45.0134 20.6999 139° Southeast  Level Estimated
12:17PM 44.9397 20.7905 139° Southeast  Level Estimated
12:18PM 44.8659 20.8809 139° Southeast  Level Estimated
12:19PM 44.7920 20.9710 139° Southeast  Level Estimated
12:20PM 44.7181 21.0609 139° Southeast  Level Estimated
12:21PM 44.6441 21.1506 139° Southeast  Level Estimated
12:22PM 44.5700 21.2400 139° Southeast  Level Estimated
12:23PM 44.4959 21.3293 139° Southeast  Level Estimated
12:24PM 44.4217 21.4183 139° Southeast  Level Estimated
12:25PM 44.3474 21.5070 139° Southeast  Level Estimated
12:26PM 44.2731 21.5956 140° Southeast  Level Estimated
12:27PM 44.1987 21.6839 140° Southeast  Level Estimated
12:28PM 44.1242 21.7720 140° Southeast  Level Estimated
12:29PM 44.0496 21.8599 140° Southeast  Level Estimated
12:30PM 43.9750 21.9475 140° Southeast  Level Estimated
12:31PM 43.9003 22.0350 140° Southeast  Level Estimated
12:32PM 43.8255 22.1222 140° Southeast  Level Estimated
12:33PM 43.7507 22.2092 140° Southeast  Level Estimated
12:34PM 43.6758 22.2960 140° Southeast  Level Estimated
12:35PM 43.6009 22.3825 140° Southeast  Level Estimated
12:36PM 43.5259 22.4689 140° Southeast  Level Estimated
12:37PM 43.4508 22.5550 140° Southeast  Level Estimated
12:38PM 43.3756 22.6409 140° Southeast  Level Estimated
12:39PM 43.3004 22.7267 140° Southeast  Level Estimated
12:40PM 43.2251 22.8122 140° Southeast  Level Estimated
12:41PM 43.1498 22.8974 140° Southeast  Level Estimated
12:42PM 43.0744 22.9825 140° Southeast  Level Estimated
12:43PM 42.9989 23.0674 141° Southeast  Level Estimated
12:44PM 42.9234 23.1521 141° Southeast  Level Estimated
12:45PM 42.8478 23.2365 141° Southeast  Level Estimated
12:46PM 42.7722 23.3207 141° Southeast  Level Estimated
12:47PM 42.6964 23.4048 141° Southeast  Level Estimated
12:48PM 42.6952 23.4062 141° Southeast  Level Estimated
12:49PM 42.6952 23.4062 331° Northwest  Level Estimated
12:50PM 42.6952 23.4062 331° Northwest  Level Estimated
12:51PM 42.6952 23.4062 331° Northwest  Level Estimated
12:52PM 42.6952 23.4062 331° Northwest  Level Estimated
12:53PM 42.6952 23.4062 331° Northwest  Level Estimated
12:54PM 42.6952 23.4062 331° Northwest  Level Estimated
12:55PM 42.6952 23.4062 331° Northwest  Level Estimated
12:56PM 42.6952 23.4062 331° Northwest  Level Estimated
12:57PM 42.6952 23.4062 331° Northwest  Level Estimated
12:58PM 42.6952 23.4062 331° Northwest  Level Estimated
12:59PM 42.6952 23.4062 331° Northwest  Level Estimated
01:00PM 42.6952 23.4062 331° Northwest  Level Estimated
01:01PM 42.6952 23.4062 331° Northwest  Level Estimated
01:02PM 42.6952 23.4062 331° Northwest  Level Estimated
01:03PM 42.6952 23.4062 331° Northwest  Level Estimated